Time;durP1;ratioP1;P1;durP2;ratioP2;P2;SDS_P1;SDS_P2;PMS_P1;PMS_P2;Temp;Humidity;BMP_temperature;BMP_pressure;BME280_temperature;BME280_humidity;BME280_pressure;Samples;Min_cycle;Max_cycle;Signal;HPM_P1;HPM_P2
2022/03/28 00:02:04;;;;;;;;;;;6.10;66.60;;;4.90;63.32;97396.75;4238911;33;19909;-81
2022/03/28 00:04:33;;;;;;;;;;;6.10;66.60;;;4.91;62.79;97400.28;4238478;33;19906;-81
2022/03/28 00:07:02;;;;;;;;;;;6.10;66.60;;;4.90;63.35;97396.75;4263098;33;20154;-81
2022/03/28 00:09:30;;;;;;;;;;;6.10;66.80;;;4.90;63.15;97396.75;4262535;33;20143;-81
2022/03/28 00:11:59;;;;;;;;;;;6.10;66.80;;;4.90;63.41;97407.59;4286567;33;19902;-81
2022/03/28 00:14:27;;;;;;;;;;;6.10;66.80;;;4.88;63.33;97398.84;4262211;33;20544;-81
2022/03/28 00:16:57;;;;;;;;;;;6.10;66.90;;;4.89;63.42;97408.66;4238142;33;20125;-81
2022/03/28 00:19:26;;;;;;;;;;;6.10;66.70;;;4.88;63.03;97396.13;4286570;33;19968;-81
2022/03/28 00:21:56;;;;;;;;;;;6.10;66.70;;;4.88;63.37;97392.59;4249770;33;20122;-81
2022/03/28 00:24:25;;;;;;;;;;;6.10;66.70;;;4.87;63.36;97394.44;4233827;33;20117;-81
2022/03/28 00:26:54;;;;;;;;;;;6.10;66.90;;;4.86;62.94;97395.47;4257006;33;19902;-82
2022/03/28 00:29:23;;;;;;;;;;;6.10;66.60;;;4.85;63.47;97391.09;4233498;33;19902;-81
2022/03/28 00:31:53;;;;;;;;;;;6.10;66.70;;;4.86;63.27;97389.22;4210109;33;20047;-81
2022/03/28 00:34:24;;;;;;;;;;;6.10;66.70;;;4.85;63.26;97393.81;4257247;33;20065;-81
2022/03/28 00:36:52;;;;;;;;;;;6.10;66.80;;;4.85;63.27;97392.97;4233043;33;19910;-81
2022/03/28 00:39:21;;;;;;;;;;;6.00;66.60;;;4.82;63.23;97394.25;4233873;33;19902;-81
2022/03/28 00:41:50;;;;;;;;;;;6.00;66.70;;;4.83;63.48;97395.06;4233484;33;19902;-81
2022/03/28 00:44:18;;;;;;;;;;;6.00;66.80;;;4.84;63.14;97394.03;4209978;33;19994;-80
2022/03/28 00:46:47;;;;;;;;;;;6.00;66.70;;;4.82;63.44;97383.38;4233244;33;20317;-81
2022/03/28 00:49:16;;;;;;;;;;;6.00;66.80;;;4.83;63.32;97379.63;4233261;33;19973;-81
2022/03/28 00:51:46;;;;;;;;;;;6.00;66.80;;;4.81;63.46;97389.84;4210054;33;20037;-81
2022/03/28 00:54:14;;;;;;;;;;;6.00;66.70;;;4.83;63.51;97390.50;4257104;33;20103;-81
2022/03/28 00:56:43;;;;;;;;;;;6.00;67.00;;;4.82;63.27;97390.66;4212539;33;20381;-81
2022/03/28 00:59:12;;;;;;;;;;;6.00;67.00;;;4.80;63.40;97382.75;4261867;33;19902;-82
2022/03/28 01:01:40;;;;;;;;;;;6.00;67.00;;;4.81;63.35;97381.72;4262961;33;19909;-81
2022/03/28 01:04:09;;;;;;;;;;;6.00;67.00;;;4.79;63.33;97377.50;4262275;33;20373;-82
2022/03/28 01:06:38;;;;;;;;;;;6.00;66.90;;;4.79;63.26;97370.22;4261173;33;19983;-82
2022/03/28 01:09:08;;;;;;;;;;;6.00;67.00;;;4.79;63.42;97377.50;4233160;33;20110;-82
2022/03/28 01:11:36;;;;;;;;;;;6.00;67.20;;;4.78;63.80;97373.97;4233267;33;19902;-81
2022/03/28 01:14:05;;;;;;;;;;;6.00;67.20;;;4.79;64.23;97366.66;4233057;33;20138;-81
2022/03/28 01:18:05;;;;;;;;;;;6.00;67.60;;;4.77;63.86;97364.16;4232720;33;19983;-82
2022/03/28 01:19:23;;;;;;;;;;;6.00;67.60;;;4.78;64.12;97354.97;4233192;33;20240;-82
2022/03/28 01:21:53;;;;;;;;;;;5.90;67.40;;;4.76;63.71;97366.06;4209385;33;19902;-81
2022/03/28 01:24:22;;;;;;;;;;;6.00;67.50;;;4.76;63.81;97352.50;4233069;33;20213;-82
2022/03/28 01:26:51;;;;;;;;;;;6.00;67.60;;;4.76;63.92;97357.06;4233604;33;20380;-81
2022/03/28 01:29:19;;;;;;;;;;;5.90;67.60;;;4.74;64.29;97343.72;4233246;33;19924;-81
2022/03/28 01:31:48;;;;;;;;;;;5.90;67.60;;;4.74;63.93;97342.84;4233097;33;19903;-82
2022/03/28 01:34:17;;;;;;;;;;;5.90;67.70;;;4.73;64.02;97350.19;4256903;33;19984;-81
2022/03/28 01:36:47;;;;;;;;;;;5.90;67.80;;;4.73;64.27;97343.91;4256589;33;20147;-81
2022/03/28 01:39:17;;;;;;;;;;;5.90;67.90;;;4.74;63.82;97340.16;4233166;33;19906;-82
2022/03/28 01:41:46;;;;;;;;;;;5.90;67.80;;;4.73;64.61;97341.19;4256809;33;19902;-81
2022/03/28 01:44:14;;;;;;;;;;;5.90;67.80;;;4.72;64.09;97344.94;4257945;33;19902;-81
2022/03/28 01:46:44;;;;;;;;;;;5.90;68.00;;;4.71;64.29;97335.97;4261263;33;19966;-82
2022/03/28 01:49:12;;;;;;;;;;;5.90;67.90;;;4.70;64.36;97334.31;4261662;33;20229;-81
2022/03/28 01:51:41;;;;;;;;;;;5.90;68.00;;;4.71;64.05;97332.44;4261317;33;19901;-81
2022/03/28 01:54:10;;;;;;;;;;;5.90;68.00;;;4.70;64.67;97328.88;4237679;33;20248;-81
2022/03/28 01:56:40;;;;;;;;;;;5.90;68.00;;;4.70;64.60;97341.63;4261045;33;19901;-81
2022/03/28 01:59:09;;;;;;;;;;;5.90;67.90;;;4.70;64.27;97336.19;4237780;33;20157;-81
2022/03/28 02:01:38;;;;;;;;;;;5.90;68.10;;;4.68;64.42;97336.38;4261726;33;19936;-81
2022/03/28 02:04:06;;;;;;;;;;;5.90;68.00;;;4.68;64.28;97339.09;4261672;33;19902;-81
2022/03/28 02:06:35;;;;;;;;;;;5.90;67.80;;;4.67;64.00;97325.75;4261063;33;20236;-82
2022/03/28 02:09:03;;;;;;;;;;;5.90;67.90;;;4.67;64.13;97320.31;4285756;33;19913;-82
2022/03/28 02:11:32;;;;;;;;;;;5.90;68.00;;;4.67;64.20;97328.47;4261678;33;19968;-82
2022/03/28 02:14:02;;;;;;;;;;;5.90;68.00;;;4.67;64.00;97328.47;4261748;33;19902;-81
2022/03/28 02:16:31;;;;;;;;;;;5.90;68.00;;;4.66;64.38;97313.22;4285168;33;19939;-81
2022/03/28 02:18:59;;;;;;;;;;;5.80;67.80;;;4.66;64.32;97324.06;4233164;33;19910;-82
2022/03/28 02:21:28;;;;;;;;;;;5.80;68.00;;;4.63;64.62;97314.47;4232846;33;20070;-81
2022/03/28 02:23:56;;;;;;;;;;;5.80;68.10;;;4.64;64.59;97320.72;4237778;33;20018;-81
2022/03/28 02:26:25;;;;;;;;;;;5.80;68.00;;;4.65;64.06;97312.38;4260795;33;20315;-81
2022/03/28 02:28:54;;;;;;;;;;;5.80;67.90;;;4.64;64.51;97308.03;4274771;33;19909;-81
2022/03/28 02:31:24;;;;;;;;;;;5.80;68.00;;;4.64;64.17;97309.88;4233005;33;20118;-81
2022/03/28 02:33:52;;;;;;;;;;;5.80;68.10;;;4.63;64.67;97317.19;4235052;33;20357;-81
2022/03/28 02:36:21;;;;;;;;;;;5.80;68.00;;;4.62;64.82;97307.38;4234567;33;20024;-81
2022/03/28 02:38:49;;;;;;;;;;;5.80;68.30;;;4.61;64.55;97306.53;4234558;33;20319;-81
2022/03/28 02:41:18;;;;;;;;;;;5.80;68.20;;;4.61;64.65;97317.38;4235353;33;20028;-80
2022/03/28 02:43:46;;;;;;;;;;;5.80;68.10;;;4.61;64.72;97316.56;4259690;33;19955;-81
2022/03/28 02:46:15;;;;;;;;;;;5.80;68.10;;;4.59;64.48;97314.03;4235480;33;20012;-81
2022/03/28 02:48:45;;;;;;;;;;;5.80;68.00;;;4.61;64.51;97321.97;4241167;33;19902;-81
2022/03/28 02:51:14;;;;;;;;;;;5.80;68.00;;;4.60;64.36;97312.16;4240607;33;19909;-81
2022/03/28 02:53:42;;;;;;;;;;;5.80;68.00;;;4.60;64.38;97304.03;4264425;33;20220;-81
2022/03/28 02:56:11;;;;;;;;;;;5.80;68.10;;;4.58;64.29;97296.09;4240476;33;19902;-81
2022/03/28 02:58:39;;;;;;;;;;;5.80;68.10;;;4.59;64.67;97299.66;4264718;33;19917;-81
2022/03/28 03:01:08;;;;;;;;;;;5.80;68.10;;;4.59;64.52;97295.03;4240812;33;20233;-81
2022/03/28 03:03:36;;;;;;;;;;;5.80;68.10;;;4.58;64.50;97292.56;4264909;33;19902;-81
2022/03/28 03:06:07;;;;;;;;;;;5.80;68.10;;;4.58;64.43;97293.38;4230773;33;20214;-81
2022/03/28 03:08:36;;;;;;;;;;;5.80;68.10;;;4.57;64.64;97299.88;4235804;33;19902;-81
2022/03/28 03:11:07;;;;;;;;;;;5.80;68.20;;;4.57;64.58;97309.84;4207459;33;19909;-81
2022/03/28 03:13:35;;;;;;;;;;;5.80;68.30;;;4.57;64.48;97305.28;4207744;33;20310;-81
2022/03/28 03:16:05;;;;;;;;;;;5.80;68.30;;;4.58;64.64;97309.66;4209100;33;20102;-81
2022/03/28 03:18:33;;;;;;;;;;;5.70;68.30;;;4.58;64.83;97311.53;4207685;33;20019;-81
2022/03/28 03:21:02;;;;;;;;;;;5.70;68.40;;;4.56;64.50;97309.03;4185177;33;19968;-81
2022/03/28 03:23:32;;;;;;;;;;;5.80;68.30;;;4.57;64.72;97309.84;4231838;33;19928;-81
2022/03/28 03:26:00;;;;;;;;;;;5.70;68.40;;;4.54;64.93;97305.69;4208514;33;20389;-81
2022/03/28 03:28:29;;;;;;;;;;;5.70;68.30;;;4.55;64.62;97310.06;4209115;33;20091;-81
2022/03/28 03:30:58;;;;;;;;;;;5.70;68.60;;;4.55;64.78;97301.09;4209493;33;19969;-82
2022/03/28 03:33:26;;;;;;;;;;;5.70;68.30;;;4.54;64.13;97319.25;4210882;33;20121;-82
2022/03/28 03:35:55;;;;;;;;;;;5.70;68.20;;;4.54;64.20;97316.53;4211701;33;19903;-82
2022/03/28 03:38:23;;;;;;;;;;;5.70;68.20;;;4.54;64.43;97311.13;4189456;33;20062;-82
2022/03/28 03:40:53;;;;;;;;;;;5.70;68.30;;;4.53;64.41;97320.28;4234213;33;19903;-81
2022/03/28 03:43:22;;;;;;;;;;;5.70;68.30;;;4.52;64.65;97324.03;4231580;33;20297;-81
2022/03/28 03:45:51;;;;;;;;;;;5.70;68.40;;;4.51;64.76;97324.25;4229157;33;19903;-81
2022/03/28 03:48:20;;;;;;;;;;;5.70;68.40;;;4.51;64.72;97327.78;4205223;33;19902;-81
2022/03/28 03:50:48;;;;;;;;;;;5.70;68.30;;;4.50;64.60;97320.69;4228954;33;19910;-81
2022/03/28 03:53:19;;;;;;;;;;;5.70;68.30;;;4.49;64.59;97335.28;4228990;33;20108;-82
2022/03/28 03:55:48;;;;;;;;;;;5.70;68.40;;;4.50;64.48;97333.44;4239620;33;20074;-81
2022/03/28 03:58:17;;;;;;;;;;;5.70;68.40;;;4.49;64.76;97329.88;4261725;33;20155;-81
2022/03/28 04:00:46;;;;;;;;;;;5.70;68.30;;;4.49;64.69;97334.47;4235746;27;20388;-83
2022/03/28 04:03:14;;;;;;;;;;;5.70;68.50;;;4.47;64.96;97321.09;4182007;33;19903;-84
2022/03/28 04:05:43;;;;;;;;;;;5.70;68.40;;;4.48;64.36;97330.06;4205292;33;20429;-84
2022/03/28 04:08:12;;;;;;;;;;;5.70;68.40;;;4.47;64.99;97326.50;4181644;33;19910;-84
2022/03/28 04:10:42;;;;;;;;;;;5.70;68.60;;;4.47;64.94;97329.22;4205303;33;19906;-84
2022/03/28 04:13:12;;;;;;;;;;;5.70;68.50;;;4.48;64.90;97339.03;4205302;33;19910;-84
2022/03/28 04:15:42;;;;;;;;;;;5.70;68.50;;;4.46;64.65;97335.69;4182091;33;19981;-84
2022/03/28 04:18:10;;;;;;;;;;;5.70;68.60;;;4.47;64.75;97333.81;4181547;33;20070;-84
2022/03/28 04:20:39;;;;;;;;;;;5.70;68.50;;;4.46;64.80;97335.69;4182073;33;19970;-85
2022/03/28 04:23:07;;;;;;;;;;;5.70;68.60;;;4.47;64.84;97334.66;4181798;33;19902;-84
2022/03/28 04:25:36;;;;;;;;;;;5.70;68.50;;;4.47;64.73;97342.78;4205110;33;20163;-85
2022/03/28 04:28:07;;;;;;;;;;;5.70;69.40;;;4.48;64.79;97349.88;4204571;33;20264;-84
2022/03/28 04:30:36;;;;;;;;;;;5.70;68.60;;;4.49;64.42;97351.56;4205342;33;20034;-83
2022/03/28 04:33:09;;;;;;;;;;;5.70;68.40;;;4.50;64.72;97357.81;4204974;33;19915;-83
2022/03/28 04:35:37;;;;;;;;;;;5.70;68.40;;;4.49;64.59;97348.84;4205089;33;19903;-84
2022/03/28 04:38:06;;;;;;;;;;;5.70;68.30;;;4.52;64.56;97351.16;4181244;33;19981;-84
2022/03/28 04:40:35;;;;;;;;;;;5.70;68.10;;;4.54;64.84;97349.09;4181810;33;19929;-84
2022/03/28 04:43:03;;;;;;;;;;;5.70;68.30;;;4.60;64.67;97347.44;4204869;33;20332;-84
2022/03/28 04:45:32;;;;;;;;;;;5.80;68.10;;;4.66;64.42;97351.19;4205035;33;19910;-84
2022/03/28 04:48:01;;;;;;;;;;;5.90;67.80;;;4.79;63.84;97353.94;4181201;33;20358;-85
2022/03/28 04:50:31;;;;;;;;;;;5.90;67.40;;;4.96;62.84;97350.84;4181617;33;20071;-85
2022/03/28 04:52:59;;;;;;;;;;;6.10;66.70;;;5.11;61.85;97354.19;4181593;33;20050;-84
2022/03/28 04:55:28;;;;;;;;;;;6.20;65.90;;;5.28;61.26;97353.78;4182003;33;19914;-85
2022/03/28 04:57:56;;;;;;;;;;;6.40;65.20;;;5.46;60.63;97361.31;4208859;33;19902;-85
2022/03/28 05:00:25;;;;;;;;;;;6.50;64.30;;;5.61;59.66;97352.97;4256639;33;19903;-85
2022/03/28 05:02:54;;;;;;;;;;;6.70;63.40;;;5.73;59.27;97342.28;4232897;33;19909;-85
2022/03/28 05:05:22;;;;;;;;;;;6.90;62.80;;;5.82;58.95;97350.00;4233024;33;19933;-86
2022/03/28 05:07:52;;;;;;;;;;;7.00;61.80;;;5.94;58.43;97346.63;4208962;33;20106;-85
2022/03/28 05:10:21;;;;;;;;;;;7.10;62.00;;;6.05;57.90;97347.91;4209346;33;20049;-85
2022/03/28 05:12:49;;;;;;;;;;;7.30;60.70;;;6.14;58.18;97347.44;4209342;33;19903;-85
2022/03/28 05:15:18;;;;;;;;;;;7.40;60.50;;;6.21;58.91;97341.16;4209409;33;20139;-84
2022/03/28 05:17:46;;;;;;;;;;;7.40;60.80;;;6.25;58.52;97339.69;4208830;33;20534;-85
2022/03/28 05:20:15;;;;;;;;;;;7.40;61.10;;;6.27;58.77;97332.97;4209206;33;19903;-85
2022/03/28 05:22:51;;;;;;;;;;;7.50;61.10;;;6.31;58.63;97333.38;4209287;33;20069;-85
2022/03/28 05:25:21;;;;;;;;;;;7.50;61.30;;;6.34;59.25;97329.38;4209267;33;19902;-84
2022/03/28 05:27:50;;;;;;;;;;;7.60;62.00;;;6.35;60.51;97326.47;4232217;33;19910;-85
2022/03/28 05:30:18;;;;;;;;;;;7.60;63.00;;;6.39;61.31;97324.97;4209159;33;19910;-85
2022/03/28 05:32:47;;;;;;;;;;;7.70;63.70;;;6.45;60.96;97326.00;4232526;33;19902;-85
2022/03/28 05:35:17;;;;;;;;;;;7.80;63.30;;;6.56;61.03;97321.75;4209211;33;20169;-84
2022/03/28 05:37:46;;;;;;;;;;;8.00;63.20;;;6.74;60.83;97315.59;4189001;33;19903;-84
2022/03/28 05:40:17;;;;;;;;;;;8.30;62.90;;;6.93;60.43;97321.97;4180973;33;19903;-85
2022/03/28 05:42:51;;;;;;;;;;;8.60;61.80;;;7.17;59.31;97311.31;4181389;33;20292;-85
2022/03/28 05:45:29;;;;;;;;;;;9.00;60.40;;;7.43;58.56;97320.31;4204303;33;20025;-84
2022/03/28 05:47:58;;;;;;;;;;;9.30;60.20;;;7.66;58.32;97309.66;4180634;33;19910;-84
2022/03/28 05:50:35;;;;;;;;;;;9.60;58.20;;;7.91;57.04;97316.97;4180894;33;19903;-84
2022/03/28 05:53:05;;;;;;;;;;;9.90;57.00;;;8.18;56.25;97315.81;4204409;33;19925;-84
2022/03/28 05:55:40;;;;;;;;;;;10.30;56.00;;;8.44;55.08;97310.03;4204258;33;19917;-84
2022/03/28 05:58:16;;;;;;;;;;;10.70;54.80;;;8.72;54.54;97305.06;4181003;33;20041;-84
2022/03/28 06:00:55;;;;;;;;;;;11.00;53.70;;;8.89;54.15;97308.84;4181401;33;20156;-84
2022/03/28 06:03:26;;;;;;;;;;;11.20;53.00;;;8.98;53.26;97303.03;4181085;33;20029;-84
2022/03/28 06:06:12;;;;;;;;;;;11.20;52.60;;;8.92;53.66;97309.44;4181087;33;19910;-84
2022/03/28 06:08:56;;;;;;;;;;;11.10;52.60;;;8.77;53.55;97307.97;4206508;33;19903;-84
2022/03/28 06:11:34;;;;;;;;;;;10.90;52.90;;;8.56;54.51;97296.50;4206658;33;19903;-84
2022/03/28 06:14:04;;;;;;;;;;;10.50;53.40;;;8.31;54.40;97309.38;4183164;33;20170;-85
2022/03/28 06:16:34;;;;;;;;;;;10.20;54.20;;;8.05;55.21;97305.91;4182907;33;20123;-85
2022/03/28 06:19:03;;;;;;;;;;;9.80;55.10;;;7.79;55.80;97305.94;4183351;33;19902;-84
2022/03/28 06:21:32;;;;;;;;;;;9.50;56.30;;;7.55;56.70;97310.41;4206637;33;19902;-84
2022/03/28 06:24:05;;;;;;;;;;;9.20;57.20;;;7.34;57.50;97307.00;4183177;33;19941;-85
2022/03/28 06:26:37;;;;;;;;;;;8.90;58.40;;;7.15;58.09;97308.81;4183042;33;20113;-84
2022/03/28 06:29:09;;;;;;;;;;;8.60;59.20;;;6.98;59.26;97303.09;4206275;33;19903;-84
2022/03/28 06:31:37;;;;;;;;;;;8.50;60.20;;;6.87;59.29;97306.53;4183387;33;19903;-85
2022/03/28 06:34:07;;;;;;;;;;;8.30;60.90;;;6.77;59.82;97298.00;4207545;33;19957;-85
2022/03/28 06:36:36;;;;;;;;;;;8.10;61.60;;;6.67;59.93;97301.19;4234281;33;20583;-85
2022/03/28 06:39:04;;;;;;;;;;;8.00;62.20;;;6.62;60.29;97303.72;4210811;33;20372;-85
2022/03/28 06:41:33;;;;;;;;;;;7.90;62.70;;;6.54;60.89;97302.09;4211410;33;19973;-86
2022/03/28 06:44:05;;;;;;;;;;;7.80;63.00;;;6.51;60.68;97305.28;4211333;33;20102;-85
2022/03/28 06:46:35;;;;;;;;;;;7.80;63.40;;;6.47;61.31;97302.13;4210614;33;20294;-86
2022/03/28 06:49:03;;;;;;;;;;;7.70;63.80;;;6.47;61.06;97301.31;4211134;33;20023;-85
2022/03/28 06:51:32;;;;;;;;;;;7.70;64.10;;;6.45;61.44;97298.81;4211472;33;19924;-86
2022/03/28 06:54:03;;;;;;;;;;;7.60;64.30;;;6.43;61.53;97300.91;4235368;33;19903;-86
2022/03/28 06:56:32;;;;;;;;;;;7.60;64.60;;;6.42;61.94;97305.50;4233842;33;20082;-86
2022/03/28 06:59:00;;;;;;;;;;;7.60;64.80;;;6.42;61.65;97304.69;4210794;33;19979;-86
2022/03/28 07:01:29;;;;;;;;;;;7.60;65.00;;;6.42;62.14;97301.97;4234217;33;20154;-83
2022/03/28 07:03:59;;;;;;;;;;;7.60;65.20;;;6.43;61.81;97292.75;4210840;33;19902;-86
2022/03/28 07:06:28;;;;;;;;;;;7.60;65.30;;;6.45;62.18;97304.25;4233864;33;19902;-83
2022/03/28 07:09:01;;;;;;;;;;;7.60;65.40;;;6.46;62.17;97311.34;4210524;33;19910;-85
2022/03/28 07:11:30;;;;;;;;;;;7.60;65.60;;;6.47;61.87;97307.56;4210759;33;19910;-85
2022/03/28 07:13:58;;;;;;;;;;;7.60;65.70;;;6.48;61.94;97305.69;4210552;33;19909;-85
2022/03/28 07:16:27;;;;;;;;;;;7.60;65.70;;;6.50;62.53;97300.88;4210148;33;19911;-85
2022/03/28 07:18:55;;;;;;;;;;;7.60;65.80;;;6.51;62.46;97299.81;4210062;33;19962;-84
2022/03/28 07:21:25;;;;;;;;;;;7.60;65.80;;;6.54;62.26;97291.22;4210668;33;20154;-86
2022/03/28 07:23:54;;;;;;;;;;;7.60;65.80;;;6.53;62.04;97295.84;4197761;33;19910;-85
2022/03/28 07:26:23;;;;;;;;;;;7.60;65.90;;;6.55;62.10;97292.88;4205344;33;19910;-84
2022/03/28 07:28:51;;;;;;;;;;;7.60;65.90;;;6.56;62.60;97295.41;4205831;33;20155;-86
2022/03/28 07:31:20;;;;;;;;;;;7.60;66.00;;;6.56;62.26;97294.56;4182593;33;19909;-85
2022/03/28 07:33:48;;;;;;;;;;;7.60;66.00;;;6.58;62.29;97293.28;4205827;33;20352;-85
2022/03/28 07:36:19;;;;;;;;;;;7.60;65.90;;;6.58;62.48;97287.84;4182147;33;19902;-85
2022/03/28 07:38:49;;;;;;;;;;;7.70;66.10;;;6.61;62.16;97275.69;4214304;33;19909;-85
2022/03/28 07:41:17;;;;;;;;;;;7.70;66.10;;;6.62;62.37;97277.38;4233691;33;20451;-85
2022/03/28 07:43:46;;;;;;;;;;;7.70;66.10;;;6.63;62.12;97273.59;4210436;33;19936;-84
2022/03/28 07:46:14;;;;;;;;;;;7.70;66.10;;;6.66;62.45;97272.31;4233258;33;20083;-85
2022/03/28 07:48:44;;;;;;;;;;;7.70;66.10;;;6.67;61.88;97269.38;4210471;33;19909;-85
2022/03/28 07:51:13;;;;;;;;;;;7.70;66.00;;;6.67;61.99;97263.09;4210230;33;20382;-85
2022/03/28 07:53:41;;;;;;;;;;;7.70;66.00;;;6.71;62.45;97276.03;4229183;33;20037;-85
2022/03/28 07:56:11;;;;;;;;;;;7.70;66.00;;;6.71;61.97;97270.59;4205132;33;19902;-84
2022/03/28 07:58:40;;;;;;;;;;;7.70;66.00;;;6.73;62.29;97263.06;4205393;33;20062;-85
2022/03/28 08:01:11;;;;;;;;;;;7.80;66.00;;;6.77;61.98;97268.88;4182217;33;19903;-85
2022/03/28 08:03:40;;;;;;;;;;;7.80;65.90;;;6.79;62.12;97274.09;4205431;33;19902;-84
2022/03/28 08:06:08;;;;;;;;;;;7.80;65.90;;;6.80;61.84;97270.34;4205349;33;20150;-85
2022/03/28 08:08:40;;;;;;;;;;;7.80;65.90;;;6.80;62.20;97273.06;4206152;33;20109;-84
2022/03/28 08:11:09;;;;;;;;;;;7.80;65.90;;;6.79;62.09;97265.94;4182130;33;19910;-85
2022/03/28 08:13:39;;;;;;;;;;;7.80;65.70;;;6.81;62.29;97274.72;4205306;33;19909;-85
2022/03/28 08:16:13;;;;;;;;;;;7.80;65.80;;;6.78;62.10;97264.31;4181721;33;19910;-85
2022/03/28 08:18:41;;;;;;;;;;;7.80;65.80;;;6.79;62.62;97274.09;4206350;33;20095;-85
2022/03/28 08:21:12;;;;;;;;;;;7.80;65.80;;;6.80;62.23;97264.88;4181669;33;19903;-85
2022/03/28 08:23:41;;;;;;;;;;;7.80;65.90;;;6.78;62.21;97264.31;4205165;33;20248;-85
2022/03/28 08:26:09;;;;;;;;;;;7.80;65.90;;;6.76;62.23;97259.06;4181640;33;20032;-85
2022/03/28 08:28:41;;;;;;;;;;;7.80;65.90;;;6.74;62.13;97259.28;4181462;33;20105;-86
2022/03/28 08:31:09;;;;;;;;;;;7.80;65.90;;;6.75;62.24;97268.28;4207861;33;20095;-86
2022/03/28 08:41:36;;;;;;;;;;;7.70;66.20;;;6.64;62.64;97256.22;4200544;33;19903;-86
2022/03/28 08:44:08;;;;;;;;;;;7.70;66.20;;;6.66;62.63;97253.28;4177004;34;19918;-85
2022/03/28 08:47:12;;;;;;;;;;;7.70;66.10;;;6.64;62.57;97252.66;4153827;34;19903;-86
2022/03/28 09:14:11;;;;;;;;;;;7.60;66.80;;;6.49;63.48;97217.59;3981268;34;23325;-84
2022/03/28 09:16:40;;;;;;;;;;;7.60;66.90;;;6.47;63.39;97217.81;4150123;33;19903;-84
2022/03/28 09:19:10;;;;;;;;;;;7.60;66.90;;;6.46;63.35;97213.41;4153971;34;20097;-85
2022/03/28 09:21:39;;;;;;;;;;;7.60;66.90;;;6.45;62.96;97214.50;4154002;34;19903;-85
2022/03/28 09:24:10;;;;;;;;;;;7.60;66.90;;;6.44;63.30;97210.91;4176865;34;20214;-84
2022/03/28 09:26:40;;;;;;;;;;;7.60;66.90;;;6.42;63.32;97207.59;4153313;34;19987;-85
2022/03/28 09:29:09;;;;;;;;;;;7.60;67.00;;;6.38;63.60;97200.94;4176601;34;19927;-85
2022/03/28 09:31:38;;;;;;;;;;;7.50;67.20;;;6.37;63.64;97199.25;4154038;34;20042;-85
2022/03/28 09:34:10;;;;;;;;;;;7.60;67.20;;;6.37;63.83;97199.25;4153919;34;20173;-85
2022/03/28 09:36:49;;;;;;;;;;;7.50;67.20;;;6.36;63.60;97197.59;4175904;34;20214;-84
2022/03/28 09:39:20;;;;;;;;;;;7.50;67.20;;;6.36;64.14;97196.75;4153756;34;20218;-85
2022/03/28 09:42:04;;;;;;;;;;;7.50;67.40;;;6.36;63.98;97192.16;4177331;34;19903;-85
2022/03/28 09:44:42;;;;;;;;;;;7.50;67.50;;;6.34;63.97;97183.38;4156331;34;19954;-86
2022/03/28 09:47:14;;;;;;;;;;;7.50;67.40;;;6.34;63.82;97177.94;4178690;34;20043;-85
2022/03/28 09:50:08;;;;;;;;;;;7.50;67.50;;;6.31;64.01;97172.94;4156010;34;19903;-86
2022/03/28 09:52:37;;;;;;;;;;;7.50;67.50;;;6.31;64.20;97170.22;4179111;34;20146;-85
2022/03/28 09:55:10;;;;;;;;;;;7.50;67.50;;;6.32;64.21;97173.78;4155483;34;19910;-85
2022/03/28 09:57:40;;;;;;;;;;;7.50;67.50;;;6.30;64.09;97171.25;4178518;34;19903;-85
2022/03/28 10:00:14;;;;;;;;;;;7.50;67.50;;;6.28;63.80;97166.06;4155832;34;19910;-85
2022/03/28 10:02:43;;;;;;;;;;;7.50;67.50;;;6.26;63.92;97159.19;4156122;34;19903;-85
2022/03/28 10:05:13;;;;;;;;;;;7.40;67.40;;;6.26;63.87;97151.03;4156052;34;20074;-85
2022/03/28 10:07:45;;;;;;;;;;;7.40;67.50;;;6.24;64.07;97153.94;4155439;34;19910;-85
2022/03/28 10:10:13;;;;;;;;;;;7.40;67.50;;;6.21;64.43;97146.22;4178787;33;19903;-85
2022/03/28 10:12:43;;;;;;;;;;;7.40;67.60;;;6.19;64.04;97144.78;4178832;34;19954;-85
2022/03/28 10:15:13;;;;;;;;;;;7.40;67.70;;;6.20;64.37;97132.84;4178952;34;19903;-85
2022/03/28 10:17:42;;;;;;;;;;;7.40;67.70;;;6.18;64.27;97135.78;4178613;34;20127;-85
2022/03/28 10:20:12;;;;;;;;;;;7.40;67.80;;;6.17;64.66;97133.28;4155876;34;20122;-85
2022/03/28 10:22:46;;;;;;;;;;;7.40;67.80;;;6.18;64.58;97129.50;4155831;34;20484;-85
2022/03/28 10:25:19;;;;;;;;;;;7.40;67.90;;;6.15;64.59;97125.34;4155982;34;19903;-85
2022/03/28 10:27:55;;;;;;;;;;;7.30;67.90;;;6.13;64.76;97122.84;4179082;34;19911;-85
2022/03/28 10:30:27;;;;;;;;;;;7.30;67.90;;;6.12;64.31;97115.75;4155724;34;19995;-85
2022/03/28 10:33:51;;;;;;;;;;;7.30;67.90;;;6.11;64.63;97108.66;4178618;34;20002;-85
2022/03/28 10:36:29;;;;;;;;;;;7.30;68.10;;;6.11;64.84;97107.81;4130597;34;19903;-85
2022/03/28 10:39:35;;;;;;;;;;;7.30;68.00;;;6.09;64.57;97108.03;4178696;34;20088;-85
2022/03/28 10:42:28;;;;;;;;;;;7.30;68.10;;;6.08;64.59;97100.09;4155504;34;19910;-86
2022/03/28 10:45:07;;;;;;;;;;;7.30;68.20;;;6.06;64.58;97100.31;4168627;34;19910;-85
2022/03/28 10:47:43;;;;;;;;;;;7.30;68.20;;;6.05;64.81;97093.22;4155375;34;20061;-85
2022/03/28 10:50:12;;;;;;;;;;;7.30;68.30;;;6.05;64.99;97093.22;4155564;34;20142;-85
2022/03/28 10:53:04;;;;;;;;;;;7.30;68.40;;;6.03;64.91;97094.50;4178871;34;20169;-85
2022/03/28 10:55:38;;;;;;;;;;;7.20;68.30;;;6.02;64.92;97085.50;4178517;34;19935;-85
2022/03/28 10:58:14;;;;;;;;;;;7.20;68.40;;;6.03;65.03;97078.19;4177871;34;20138;-84
2022/03/28 11:01:22;;;;;;;;;;;7.20;68.50;;;6.02;65.04;97074.63;4155732;34;20156;-85
2022/03/28 11:03:57;;;;;;;;;;;7.20;68.50;;;6.01;65.04;97061.25;4178272;34;19903;-85
2022/03/28 11:06:59;;;;;;;;;;;7.20;68.70;;;6.01;65.01;97051.19;4178027;34;19910;-86
2022/03/28 11:10:01;;;;;;;;;;;7.20;68.60;;;5.99;64.93;97045.16;4176121;34;19922;-86
2022/03/28 11:12:32;;;;;;;;;;;7.20;68.50;;;6.00;65.05;97055.00;4178034;34;19910;-86
2022/03/28 11:15:02;;;;;;;;;;;7.20;68.60;;;5.99;65.13;97054.16;4155378;34;19923;-85
2022/03/28 11:17:33;;;;;;;;;;;7.20;69.50;;;5.99;64.75;97050.59;4154929;34;20126;-86
2022/03/28 11:20:10;;;;;;;;;;;7.20;68.60;;;5.97;65.15;97036.38;4178159;34;19903;-86
2022/03/28 11:22:54;;;;;;;;;;;7.20;68.70;;;5.96;65.45;97029.28;4155049;34;19907;-86
2022/03/28 11:25:38;;;;;;;;;;;7.20;68.80;;;5.96;65.27;97023.84;4155463;34;20158;-87
2022/03/28 11:28:09;;;;;;;;;;;7.20;68.80;;;5.93;65.08;97013.41;4177724;34;20415;-86
2022/03/28 11:30:40;;;;;;;;;;;7.10;68.80;;;5.94;65.49;97009.63;4178111;34;19914;-86
2022/03/28 11:33:11;;;;;;;;;;;7.10;68.90;;;5.94;65.38;97009.63;4155184;34;19903;-85
2022/03/28 11:35:52;;;;;;;;;;;7.20;68.90;;;5.93;65.24;96992.50;4155088;34;20324;-86
2022/03/28 11:38:27;;;;;;;;;;;7.10;68.80;;;5.94;65.54;96966.16;4155116;34;19922;-86
2022/03/28 11:40:56;;;;;;;;;;;7.10;68.90;;;5.93;65.66;96986.22;4155126;34;19910;-85
2022/03/28 11:43:32;;;;;;;;;;;7.10;69.10;;;5.94;65.54;96988.72;4177923;34;20120;-86
2022/03/28 11:46:02;;;;;;;;;;;7.10;69.30;;;5.93;65.61;96987.06;4155191;34;20051;-85
2022/03/28 11:48:32;;;;;;;;;;;7.10;69.20;;;5.93;65.56;96984.34;4154714;34;19903;-85
2022/03/28 11:51:14;;;;;;;;;;;7.10;69.10;;;5.93;65.27;96975.34;4155079;34;19903;-85
2022/03/28 11:53:42;;;;;;;;;;;7.10;69.00;;;5.92;64.96;96973.69;4154835;34;19903;-85
2022/03/28 11:56:11;;;;;;;;;;;7.10;69.00;;;5.92;65.30;96970.97;4154826;34;19910;-85
2022/03/28 11:58:39;;;;;;;;;;;7.10;69.00;;;5.91;65.62;96964.72;4154672;34;19911;-87
2022/03/28 12:01:10;;;;;;;;;;;7.10;69.00;;;5.90;65.55;96962.19;4154789;34;19903;-84
2022/03/28 12:04:44;;;;;;;;;;;7.10;69.00;;;5.91;65.53;96955.72;4178011;34;20146;-85
2022/03/28 12:07:15;;;;;;;;;;;7.10;69.10;;;5.91;65.28;96950.28;4177952;34;19903;-85
2022/03/28 12:14:12;;;;;;;;;;;7.10;69.20;;;5.88;64.90;96935.25;4172052;33;20214;-86
2022/03/28 12:16:48;;;;;;;;;;;7.10;69.30;;;5.89;65.74;96930.66;4154625;34;19903;-86
2022/03/28 12:19:23;;;;;;;;;;;7.10;69.30;;;5.89;65.66;96927.94;4164780;34;19904;-86
2022/03/28 12:21:55;;;;;;;;;;;7.10;69.30;;;5.89;65.50;96919.78;4162403;33;20183;-86
2022/03/28 12:24:28;;;;;;;;;;;7.10;69.40;;;5.89;65.67;96914.34;4171603;34;19997;-86
2022/03/28 12:27:19;;;;;;;;;;;7.10;69.50;;;5.88;65.83;96908.09;4160978;33;19902;-85
2022/03/28 12:29:47;;;;;;;;;;;7.10;69.50;;;5.88;65.90;96904.53;4183259;33;19903;-85
2022/03/28 12:32:17;;;;;;;;;;;7.10;69.50;;;5.89;65.79;96898.03;4206912;33;19902;-86